Time;durP1;ratioP1;P1;durP2;ratioP2;P2;SDS_P1;SDS_P2;PMS_P1;PMS_P2;Temp;Humidity;BMP_temperature;BMP_pressure;BME280_temperature;BME280_humidity;BME280_pressure;Samples;Min_cycle;Max_cycle;Signal;HPM_P1;HPM_P2
2022/06/28 00:02:22;;;;;;;4.18;1.10;;;17.70;63.80;;;;;;5026774;28;20028;-75
2022/06/28 00:04:47;;;;;;;5.38;1.20;;;17.70;63.90;;;;;;5027231;28;20025;-75
2022/06/28 00:07:14;;;;;;;7.43;1.10;;;17.90;68.20;;;;;;5029462;28;20033;-75
2022/06/28 00:09:39;;;;;;;4.68;0.85;;;17.60;63.90;;;;;;5030243;28;20055;-75
2022/06/28 00:12:05;;;;;;;5.32;1.35;;;17.50;64.00;;;;;;5024914;28;20500;-75
2022/06/28 00:17:16;;;;;;;4.57;1.23;;;17.40;64.00;;;;;;5023720;28;20044;-75
2022/06/28 00:19:42;;;;;;;4.50;0.90;;;17.40;64.10;;;;;;5023827;28;20049;-75
2022/06/28 00:22:07;;;;;;;6.53;1.10;;;17.40;64.30;;;;;;5019692;28;20037;-74
2022/06/28 00:24:33;;;;;;;4.65;1.05;;;17.40;64.70;;;;;;5028777;28;20071;-75
2022/06/28 00:26:59;;;;;;;5.18;1.02;;;16.80;76.20;;;;;;5020816;28;20032;-75
2022/06/28 00:29:24;;;;;;;3.40;1.05;;;20.10;77.80;;;;;;5026435;28;20025;-74
2022/06/28 00:31:50;;;;;;;8.38;1.10;;;17.00;79.50;;;;;;5024141;28;20076;-75
2022/06/28 00:34:16;;;;;;;13.00;1.23;;;18.00;71.70;;;;;;5021917;28;20052;-75
2022/06/28 00:36:42;;;;;;;5.18;0.90;;;17.20;73.30;;;;;;5025906;28;20086;-75
2022/06/28 00:39:07;;;;;;;4.53;1.00;;;17.30;79.10;;;;;;5027231;28;20022;-75
2022/06/28 00:41:34;;;;;;;3.63;0.95;;;18.00;73.00;;;;;;5022796;28;20087;-75
2022/06/28 00:44:01;;;;;;;2.78;0.90;;;17.00;79.30;;;;;;5025940;28;20108;-75
2022/06/28 00:46:27;;;;;;;3.53;0.90;;;;;;;;;;5014190;28;20021;-75
2022/06/28 00:48:53;;;;;;;3.63;0.90;;;17.60;70.50;;;;;;5025771;28;20026;-75
2022/06/28 00:51:19;;;;;;;5.20;1.00;;;16.80;67.50;;;;;;5028142;28;20033;-75
2022/06/28 00:53:45;;;;;;;3.58;0.80;;;;;;;;;;5026555;28;20471;-75
2022/06/28 00:56:12;;;;;;;3.58;0.90;;;;;;;;;;5023158;28;20144;-75
2022/06/28 00:58:38;;;;;;;3.63;0.93;;;;;;;;;;5029216;28;20037;-75
2022/06/28 01:01:04;;;;;;;5.45;0.75;;;;;;;;;;5026895;28;20103;-75
2022/06/28 01:03:30;;;;;;;6.35;0.80;;;;;;;;;;5028442;28;20021;-74
2022/06/28 01:05:55;;;;;;;4.65;1.02;;;15.00;68.30;;;;;;5024979;28;20022;-74
2022/06/28 01:08:21;;;;;;;6.30;1.20;;;16.70;64.40;;;;;;5038466;28;20033;-75
2022/06/28 01:10:47;;;;;;;7.18;1.20;;;16.70;64.50;;;;;;5024520;28;20025;-75
2022/06/28 01:13:13;;;;;;;5.03;1.20;;;17.70;70.00;;;;;;5027732;28;20026;-75
2022/06/28 01:15:41;;;;;;;6.20;1.27;;;16.50;64.80;;;;;;5016536;28;20030;-75
2022/06/28 01:18:08;;;;;;;4.45;0.95;;;16.50;64.80;;;;;;5026226;28;20049;-75
2022/06/28 01:20:34;;;;;;;5.25;1.17;;;16.50;64.90;;;;;;5020995;28;20060;-75
2022/06/28 01:23:01;;;;;;;6.15;0.90;;;16.40;64.90;;;;;;5024377;28;20473;-75
2022/06/28 01:25:26;;;;;;;5.35;1.00;;;16.40;64.90;;;;;;5023691;28;20041;-75
2022/06/28 01:27:53;;;;;;;2.83;0.90;;;16.40;64.70;;;;;;5026787;28;20377;-75
2022/06/28 01:30:19;;;;;;;3.40;1.00;;;16.30;64.60;;;;;;5025635;28;20017;-74
2022/06/28 01:32:45;;;;;;;5.78;1.10;;;16.30;64.40;;;;;;5022750;28;20038;-75
2022/06/28 01:35:11;;;;;;;4.72;1.10;;;16.20;64.40;;;;;;5021608;28;20025;-75
2022/06/28 01:37:37;;;;;;;4.78;1.00;;;16.20;64.50;;;;;;5025363;28;20036;-75
2022/06/28 01:40:04;;;;;;;4.97;0.90;;;16.20;64.20;;;;;;5028380;28;20026;-75
2022/06/28 01:42:30;;;;;;;3.63;0.93;;;16.10;64.20;;;;;;5025828;28;20034;-75
2022/06/28 01:44:57;;;;;;;3.42;1.05;;;16.10;64.20;;;;;;5016291;28;20018;-75
2022/06/28 01:47:25;;;;;;;6.35;1.02;;;16.10;64.20;;;;;;5020869;28;20033;-74
2022/06/28 01:49:52;;;;;;;5.78;0.98;;;16.00;64.40;;;;;;5026317;28;20430;-75
2022/06/28 01:52:17;;;;;;;4.57;1.10;;;15.90;64.40;;;;;;5022565;28;20068;-75
2022/06/28 01:54:43;;;;;;;4.82;0.90;;;15.90;64.60;;;;;;5028084;28;20064;-75
2022/06/28 01:57:09;;;;;;;5.25;1.05;;;15.80;64.60;;;;;;5027117;28;21282;-75
2022/06/28 01:59:37;;;;;;;5.78;1.00;;;15.80;64.60;;;;;;5023988;28;20100;-75
2022/06/28 02:02:03;;;;;;;6.65;1.10;;;15.70;64.70;;;;;;5023468;28;20029;-74
2022/06/28 02:04:29;;;;;;;4.32;1.15;;;15.70;65.00;;;;;;5025053;28;20136;-74
2022/06/28 02:06:56;;;;;;;4.00;1.00;;;15.60;65.70;;;;;;5025958;28;20036;-75
2022/06/28 02:09:23;;;;;;;5.80;1.00;;;15.70;65.50;;;;;;5022860;28;20049;-74
2022/06/28 02:11:49;;;;;;;5.10;1.30;;;15.70;65.80;;;;;;5021562;28;20037;-75
2022/06/28 02:14:15;;;;;;;7.20;1.10;;;15.70;65.90;;;;;;5025104;28;20366;-74
2022/06/28 02:16:41;;;;;;;4.65;0.95;;;15.70;65.70;;;;;;5025632;28;20453;-74
2022/06/28 02:19:07;;;;;;;6.55;1.08;;;15.60;65.50;;;;;;5019340;28;20048;-75
2022/06/28 02:21:41;;;;;;;4.18;1.00;;;15.50;65.40;;;;;;5024992;28;20034;-74
2022/06/28 02:24:08;;;;;;;4.53;1.10;;;15.50;65.60;;;;;;5026986;28;20060;-75
2022/06/28 02:26:34;;;;;;;4.70;1.20;;;15.40;65.90;;;;;;5027279;28;20026;-74
2022/06/28 02:29:00;;;;;;;3.63;1.05;;;15.30;66.10;;;;;;5022209;28;20489;-74
2022/06/28 02:31:26;;;;;;;3.47;1.00;;;15.30;66.20;;;;;;5024599;28;20399;-75
2022/06/28 02:33:52;;;;;;;3.05;0.90;;;15.30;66.40;;;;;;5025565;28;20067;-75
2022/06/28 02:41:43;;;;;;;5.47;1.00;;;15.30;66.20;;;;;;5025372;28;20025;-75
2022/06/28 02:44:09;;;;;;;3.75;1.08;;;15.30;66.20;;;;;;5022695;28;20404;-75
2022/06/28 02:46:35;;;;;;;5.13;1.08;;;15.20;66.00;;;;;;5025940;28;20044;-75
2022/06/28 02:49:01;;;;;;;3.25;0.85;;;15.20;66.30;;;;;;5025528;28;20119;-75
2022/06/28 02:51:27;;;;;;;3.30;0.90;;;15.20;66.30;;;;;;5020862;28;20595;-75
2022/06/28 02:53:53;;;;;;;5.68;1.00;;;15.20;66.10;;;;;;5025092;28;20029;-75
2022/06/28 02:56:19;;;;;;;3.88;1.00;;;15.10;65.70;;;;;;5025282;28;20040;-75
2022/06/28 02:58:45;;;;;;;4.57;1.10;;;15.10;65.70;;;;;;5025912;28;20116;-75
2022/06/28 03:01:11;;;;;;;5.47;1.00;;;15.10;65.80;;;;;;5024898;28;20037;-75
2022/06/28 03:03:36;;;;;;;4.65;0.88;;;15.10;66.00;;;;;;5026948;28;20044;-75
2022/06/28 03:06:03;;;;;;;4.35;1.00;;;15.00;65.90;;;;;;5022722;28;20030;-75
2022/06/28 03:08:29;;;;;;;6.20;1.40;;;15.00;65.70;;;;;;5026584;28;20032;-76
2022/06/28 03:10:54;;;;;;;3.83;1.00;;;14.90;65.60;;;;;;5024864;28;20018;-75
2022/06/28 03:13:20;;;;;;;5.05;1.20;;;14.90;65.60;;;;;;5023138;28;20037;-75
2022/06/28 03:15:47;;;;;;;5.35;1.42;;;14.90;65.70;;;;;;5017262;28;20029;-75
2022/06/28 03:18:12;;;;;;;3.17;0.90;;;14.90;66.00;;;;;;5012246;28;20053;-75
2022/06/28 03:20:38;;;;;;;3.60;0.90;;;14.80;66.30;;;;;;5021298;28;20033;-75
2022/06/28 03:23:04;;;;;;;3.60;0.90;;;14.80;66.40;;;;;;5023613;28;20451;-75
2022/06/28 03:25:30;;;;;;;2.72;0.93;;;14.80;66.60;;;;;;5026060;28;20048;-75
2022/06/28 03:27:55;;;;;;;4.07;0.90;;;14.70;66.60;;;;;;5052964;28;20034;-75
2022/06/28 03:30:21;;;;;;;7.72;0.95;;;14.80;66.40;;;;;;5029620;28;20037;-75
2022/06/28 03:32:47;;;;;;;4.75;1.00;;;14.70;66.10;;;;;;5028254;28;20041;-75
2022/06/28 03:35:12;;;;;;;3.50;1.00;;;14.70;66.20;;;;;;5026419;28;20165;-75
2022/06/28 03:37:38;;;;;;;4.32;0.90;;;14.60;66.30;;;;;;5028448;28;20033;-75
2022/06/28 03:40:05;;;;;;;4.75;1.02;;;14.60;66.50;;;;;;5026068;28;20463;-75
2022/06/28 03:42:31;;;;;;;3.05;0.90;;;14.50;66.50;;;;;;5028698;28;20554;-75
2022/06/28 03:44:57;;;;;;;6.63;1.02;;;14.50;66.40;;;;;;5027722;28;20033;-79
2022/06/28 03:47:23;;;;;;;7.07;1.10;;;14.50;66.60;;;;;;5024836;28;20504;-75
2022/06/28 03:49:48;;;;;;;5.47;1.10;;;14.40;66.80;;;;;;5026777;28;20060;-75
2022/06/28 03:52:15;;;;;;;3.95;1.08;;;14.40;67.00;;;;;;5029521;28;20122;-75
2022/06/28 03:54:40;;;;;;;7.00;1.20;;;14.40;67.20;;;;;;5030351;28;20036;-75
2022/06/28 03:57:06;;;;;;;6.18;1.15;;;14.30;67.40;;;;;;5027248;28;20048;-75
2022/06/28 03:59:33;;;;;;;4.97;1.10;;;14.30;67.70;;;;;;5028285;28;20034;-75
2022/06/28 04:01:59;;;;;;;3.30;1.00;;;14.30;68.10;;;;;;5027097;28;20132;-75
2022/06/28 04:04:24;;;;;;;9.32;1.13;;;14.30;68.20;;;;;;5027882;28;20091;-75
2022/06/28 04:06:50;;;;;;;10.80;1.20;;;14.30;68.40;;;;;;5026565;28;20025;-76
2022/06/28 04:09:19;;;;;;;15.57;1.25;;;14.20;68.40;;;;;;5023074;28;20413;-76
2022/06/28 04:11:45;;;;;;;10.38;1.17;;;14.20;68.50;;;;;;5028119;28;20065;-76
2022/06/28 04:14:13;;;;;;;8.25;1.00;;;14.20;68.50;;;;;;5026176;28;20124;-76
2022/06/28 04:16:41;;;;;;;8.27;1.10;;;14.20;68.50;;;;;;5025972;28;20083;-76
2022/06/28 04:19:07;;;;;;;4.53;1.00;;;14.20;68.40;;;;;;5029499;28;20041;-76
2022/06/28 04:21:33;;;;;;;6.32;0.90;;;14.20;68.10;;;;;;5020372;28;20508;-76
2022/06/28 04:23:59;;;;;;;3.42;1.13;;;14.20;68.00;;;;;;5023477;28;20033;-77
2022/06/28 04:26:24;;;;;;;5.00;1.25;;;14.20;68.00;;;;;;5025114;28;20080;-77
2022/06/28 04:28:50;;;;;;;4.40;1.38;;;14.30;68.10;;;;;;5029102;28;20033;-75
2022/06/28 04:31:16;;;;;;;5.25;1.20;;;14.30;68.30;;;;;;5027364;28;20108;-76
2022/06/28 04:33:42;;;;;;;7.53;1.30;;;14.30;68.30;;;;;;5030201;28;20128;-76
2022/06/28 04:36:08;;;;;;;5.03;1.20;;;14.30;68.40;;;;;;5028524;28;20579;-76
2022/06/28 04:38:34;;;;;;;5.75;1.30;;;14.30;68.40;;;;;;5021519;28;20504;-76
2022/06/28 04:40:59;;;;;;;5.05;1.25;;;14.30;68.20;;;;;;5029010;28;20053;-76
2022/06/28 04:43:25;;;;;;;3.78;1.25;;;14.30;68.20;;;;;;5028374;28;20060;-76
2022/06/28 04:45:51;;;;;;;3.88;1.30;;;14.30;68.10;;;;;;5028804;28;20057;-76
2022/06/28 04:48:17;;;;;;;5.65;1.25;;;14.30;68.10;;;;;;5029608;28;20029;-76
2022/06/28 04:50:43;;;;;;;5.47;1.20;;;14.30;68.10;;;;;;5023321;28;20113;-73
2022/06/28 04:53:08;;;;;;;5.30;1.20;;;14.30;68.10;;;;;;5026544;28;20538;-74
2022/06/28 04:55:34;;;;;;;4.47;1.30;;;14.30;68.20;;;;;;5029062;28;20468;-74
2022/06/28 04:58:00;;;;;;;7.30;1.40;;;14.30;68.30;;;;;;5024961;28;20538;-74
2022/06/28 05:00:27;;;;;;;5.03;1.65;;;14.30;68.50;;;;;;5027179;28;20464;-75
2022/06/28 05:02:53;;;;;;;5.80;1.33;;;14.40;69.80;;;;;;5027760;28;20030;-77
2022/06/28 05:05:18;;;;;;;5.05;1.25;;;14.40;68.90;;;;;;5032271;28;20035;-76
2022/06/28 05:07:44;;;;;;;7.80;1.58;;;14.40;69.00;;;;;;5023562;28;20113;-75
2022/06/28 05:10:09;;;;;;;8.35;1.52;;;14.50;69.20;;;;;;5024172;28;20060;-78
2022/06/28 05:12:35;;;;;;;8.05;1.63;;;14.50;69.30;;;;;;5028652;28;20030;-75
2022/06/28 05:15:01;;;;;;;7.03;1.63;;;14.50;69.30;;;;;;5020641;28;20464;-75
2022/06/28 05:17:27;;;;;;;8.32;1.67;;;14.50;69.60;;;;;;5022351;28;20033;-75
2022/06/28 05:19:52;;;;;;;7.75;1.60;;;14.60;70.20;;;;;;5024530;28;20049;-75
2022/06/28 05:22:18;;;;;;;5.68;1.55;;;14.60;71.20;;;;;;5027672;28;20025;-76
2022/06/28 05:24:44;;;;;;;11.05;1.83;;;14.60;72.00;;;;;;5021812;28;20029;-76
2022/06/28 05:27:09;;;;;;;12.38;2.22;;;14.60;73.80;;;;;;5026801;28;20044;-76
2022/06/28 05:29:35;;;;;;;8.73;2.08;;;14.70;73.20;;;;;;5027054;28;20029;-76
2022/06/28 05:32:01;;;;;;;9.57;2.13;;;14.70;73.50;;;;;;5024660;28;20034;-76
2022/06/28 05:34:26;;;;;;;9.43;2.30;;;14.70;73.90;;;;;;5018615;28;20112;-77
2022/06/28 05:36:52;;;;;;;12.95;2.10;;;14.80;74.40;;;;;;5026750;28;20373;-76
2022/06/28 05:39:18;;;;;;;10.85;2.50;;;14.90;74.80;;;;;;5028424;28;20033;-76
2022/06/28 05:41:44;;;;;;;11.85;2.17;;;14.90;75.20;;;;;;5015655;28;20034;-77
2022/06/28 05:44:11;;;;;;;7.05;2.20;;;15.00;75.30;;;;;;5018155;28;20025;-77
2022/06/28 05:46:39;;;;;;;8.95;2.47;;;15.00;75.80;;;;;;5016975;28;20448;-77
2022/06/28 05:49:05;;;;;;;12.70;2.40;;;15.10;76.70;;;;;;5012364;28;20033;-77
2022/06/28 05:51:31;;;;;;;14.02;2.53;;;16.40;87.40;;;;;;5024922;28;20460;-77
2022/06/28 05:53:57;;;;;;;12.13;2.17;;;15.20;77.60;;;;;;5017292;28;20029;-77
2022/06/28 05:56:23;;;;;;;8.57;2.28;;;15.30;79.30;;;;;;5017085;28;20026;-77
2022/06/28 05:58:48;;;;;;;7.97;2.15;;;15.40;78.20;;;;;;5015012;28;20395;-77
2022/06/28 06:01:14;;;;;;;8.38;2.10;;;15.50;78.50;;;;;;5027814;28;20025;-77
2022/06/28 06:03:40;;;;;;;11.27;2.50;;;15.60;78.60;;;;;;5029372;28;20029;-77
2022/06/28 06:06:06;;;;;;;8.00;1.98;;;13.30;78.00;;;;;;5026465;28;20033;-77
2022/06/28 06:08:32;;;;;;;9.27;1.98;;;15.80;77.10;;;;;;5025033;28;20095;-77
2022/06/28 06:10:58;;;;;;;9.52;2.30;;;16.00;78.60;;;;;;5024740;28;20076;-77
2022/06/28 06:13:24;;;;;;;10.60;2.30;;;16.10;76.80;;;;;;5026864;28;20037;-78
2022/06/28 06:15:50;;;;;;;8.13;2.38;;;16.20;76.70;;;;;;5026322;28;20022;-78
2022/06/28 06:18:15;;;;;;;8.77;2.40;;;16.20;76.00;;;;;;5026041;28;20280;-80
2022/06/28 06:20:41;;;;;;;18.13;3.05;;;16.30;75.90;;;;;;5021459;28;20045;-81
2022/06/28 06:23:07;;;;;;;13.43;2.65;;;16.30;76.10;;;;;;5026465;28;20029;-77
2022/06/28 06:25:33;;;;;;;13.25;2.95;;;16.40;75.00;;;;;;5024859;28;20436;-82
2022/06/28 06:27:58;;;;;;;9.48;2.53;;;16.50;74.90;;;;;;5024769;28;20435;-78
2022/06/28 06:30:24;;;;;;;8.05;2.00;;;16.70;74.20;;;;;;5025432;28;20022;-76
2022/06/28 06:32:53;;;;;;;10.73;2.25;;;17.00;73.10;;;;;;5019758;28;20038;-77
2022/06/28 06:35:19;;;;;;;9.85;2.35;;;17.20;72.80;;;;;;5022916;28;20049;-77
2022/06/28 06:37:45;;;;;;;9.52;2.28;;;17.40;71.80;;;;;;5025579;28;20065;-80
2022/06/28 06:40:11;;;;;;;10.35;2.10;;;17.60;70.70;;;;;;5041190;28;20044;-76
2022/06/28 06:42:37;;;;;;;9.73;1.90;;;17.90;69.40;;;;;;5028244;28;20037;-76
2022/06/28 06:45:03;;;;;;;6.25;1.80;;;18.10;68.80;;;;;;5022959;28;20083;-74
2022/06/28 06:47:29;;;;;;;10.52;1.63;;;18.40;67.90;;;;;;5018460;28;20034;-76
2022/06/28 06:49:54;;;;;;;9.70;2.13;;;18.70;66.40;;;;;;5016323;28;20014;-76
2022/06/28 06:52:20;;;;;;;12.80;1.90;;;19.00;65.70;;;;;;5013996;28;20500;-76
2022/06/28 06:54:46;;;;;;;7.47;2.10;;;19.40;64.00;;;;;;5038300;28;20507;-76
2022/06/28 06:57:12;;;;;;;6.75;1.85;;;19.90;61.60;;;;;;5025543;28;20029;-75
2022/06/28 06:59:37;;;;;;;9.45;1.60;;;19.10;55.20;;;;;;5025878;28;20507;-77
2022/06/28 07:02:03;;;;;;;8.15;1.50;;;21.50;53.00;;;;;;5028399;28;20038;-80
2022/06/28 07:04:29;;;;;;;8.95;1.80;;;22.60;50.00;;;;;;5018934;28;20037;-83
2022/06/28 07:06:56;;;;;;;7.00;1.40;;;23.50;46.40;;;;;;5029923;28;20030;-78
2022/06/28 07:09:23;;;;;;;6.45;1.10;;;24.30;43.30;;;;;;5031656;28;20485;-77
2022/06/28 07:11:48;;;;;;;8.43;1.20;;;26.00;41.90;;;;;;5022634;28;20068;-78
2022/06/28 07:14:14;;;;;;;11.27;1.90;;;25.40;38.90;;;;;;5020138;28;20771;-78
2022/06/28 07:16:40;;;;;;;10.35;1.77;;;26.00;38.00;;;;;;5029710;28;20401;-78
2022/06/28 07:19:05;;;;;;;7.50;1.77;;;26.30;37.50;;;;;;5015059;28;20049;-79
2022/06/28 07:21:31;;;;;;;7.53;1.70;;;26.70;36.80;;;;;;5028038;28;20029;-78
2022/06/28 07:23:57;;;;;;;7.82;1.23;;;27.10;36.00;;;;;;5025805;28;20039;-80
2022/06/28 07:26:23;;;;;;;8.57;1.20;;;27.40;34.90;;;;;;5019842;28;20496;-79
2022/06/28 07:28:49;;;;;;;6.50;1.60;;;27.70;33.60;;;;;;5019220;28;20033;-78
2022/06/28 07:31:15;;;;;;;8.57;1.30;;;27.70;33.00;;;;;;5027737;28;20025;-78
2022/06/28 07:33:42;;;;;;;9.15;1.38;;;27.80;32.70;;;;;;5028886;28;20033;-78
2022/06/28 07:36:08;;;;;;;8.68;1.52;;;28.00;32.30;;;;;;5030092;28;20021;-80
2022/06/28 07:38:34;;;;;;;10.25;1.42;;;28.10;32.30;;;;;;5030261;28;20037;-80
2022/06/28 07:41:00;;;;;;;9.05;1.45;;;28.40;31.80;;;;;;5025969;28;20084;-78
2022/06/28 07:43:26;;;;;;;9.18;1.30;;;28.50;31.50;;;;;;5029239;28;20413;-79
2022/06/28 07:45:52;;;;;;;9.02;1.27;;;28.30;31.50;;;;;;5024020;28;20120;-79
2022/06/28 07:48:19;;;;;;;5.97;1.23;;;28.00;31.90;;;;;;5029075;28;20392;-82
2022/06/28 07:53:33;;;;;;;9.00;1.35;;;27.20;32.80;;;;;;5025780;28;20184;-84
2022/06/28 07:55:59;;;;;;;7.68;1.15;;;26.50;33.90;;;;;;5027904;28;20548;-82
2022/06/28 07:58:25;;;;;;;10.68;1.38;;;25.80;36.60;;;;;;5014964;28;20025;-82
2022/06/28 08:00:51;;;;;;;7.15;1.27;;;25.00;37.80;;;;;;5013228;28;20030;-83
2022/06/28 08:03:16;;;;;;;8.30;1.50;;;24.70;38.90;;;;;;5018909;28;20036;-82
2022/06/28 08:05:42;;;;;;;10.52;1.50;;;24.40;38.40;;;;;;5025012;28;20034;-86
2022/06/28 08:08:08;;;;;;;8.82;1.50;;;24.40;39.50;;;;;;5021929;28;20030;-87
2022/06/28 08:10:34;;;;;;;7.40;1.27;;;24.50;40.20;;;;;;5024628;28;20091;-88
2022/06/28 08:13:00;;;;;;;7.72;1.20;;;24.50;40.70;;;;;;5030486;28;20446;-81
2022/06/28 08:15:26;;;;;;;8.48;1.23;;;24.70;38.60;;;;;;5028139;28;20024;-82
2022/06/28 08:17:51;;;;;;;9.55;1.27;;;24.80;39.30;;;;;;5014218;28;20040;-82
2022/06/28 08:20:17;;;;;;;4.68;1.20;;;24.30;39.40;;;;;;5027678;28;20032;-84
2022/06/28 08:22:43;;;;;;;8.35;1.40;;;24.30;39.00;;;;;;5028839;28;20164;-83
2022/06/28 08:25:09;;;;;;;5.28;1.20;;;24.00;39.50;;;;;;5028558;28;20021;-83
2022/06/28 08:27:35;;;;;;;7.15;1.38;;;23.90;40.30;;;;;;5013908;28;20033;-85
2022/06/28 08:30:01;;;;;;;6.05;1.20;;;23.70;40.30;;;;;;5019295;28;20030;-85
2022/06/28 08:32:26;;;;;;;9.38;1.17;;;23.70;40.30;;;;;;5019328;28;20044;-85
2022/06/28 08:34:52;;;;;;;7.85;1.75;;;24.60;42.00;;;;;;5027342;28;20064;-85
2022/06/28 08:37:19;;;;;;;7.10;1.15;;;24.00;43.20;;;;;;5027525;28;20480;-86
2022/06/28 08:39:45;;;;;;;6.80;1.02;;;24.00;40.20;;;;;;5019980;28;20029;-83
2022/06/28 08:42:12;;;;;;;9.80;1.40;;;24.90;44.10;;;;;;5019072;28;20758;-84
2022/06/28 08:44:38;;;;;;;8.02;1.10;;;25.60;44.40;;;;;;5022018;28;20033;-83
2022/06/28 08:47:04;;;;;;;7.93;1.15;;;25.20;45.00;;;;;;5022017;28;20034;-81
2022/06/28 08:49:56;;;;;;;5.88;1.10;;;24.00;38.60;;;;;;5016075;28;20017;-81
2022/06/28 08:52:23;;;;;;;6.78;1.13;;;23.70;39.70;;;;;;5015750;28;20389;-82
2022/06/28 08:54:50;;;;;;;5.97;1.20;;;24.30;41.30;;;;;;5016224;28;20075;-81
2022/06/28 08:57:21;;;;;;;7.38;1.20;;;23.50;40.40;;;;;;5029769;28;20412;-79
2022/06/28 08:59:49;;;;;;;6.93;1.20;;;23.40;41.00;;;;;;5023888;28;20057;-79
2022/06/28 09:02:16;;;;;;;6.05;1.17;;;23.10;41.60;;;;;;5023706;28;20033;-79
2022/06/28 09:04:53;;;;;;;8.95;1.60;;;22.30;45.60;;;;;;5015413;28;20091;-79
2022/06/28 09:07:20;;;;;;;6.30;1.20;;;22.60;42.90;;;;;;5012457;28;20496;-79
2022/06/28 09:09:46;;;;;;;7.85;1.30;;;21.80;48.30;;;;;;5026429;28;20029;-79
2022/06/28 09:12:12;;;;;;;7.05;1.10;;;22.10;44.20;;;;;;5017992;28;20049;-79
2022/06/28 09:14:39;;;;;;;7.47;1.30;;;22.00;45.00;;;;;;5021487;28;20062;-83
2022/06/28 09:17:24;;;;;;;7.85;1.10;;;21.90;45.20;;;;;;5017284;28;20117;-81
2022/06/28 09:20:09;;;;;;;7.35;1.30;;;21.80;45.30;;;;;;5016875;28;20049;-80
2022/06/28 09:22:41;;;;;;;4.88;0.95;;;21.70;45.70;;;;;;5016780;28;20033;-81
2022/06/28 09:25:13;;;;;;;6.90;1.30;;;21.70;46.10;;;;;;5011717;28;20030;-79
2022/06/28 09:27:42;;;;;;;8.30;1.40;;;21.60;45.60;;;;;;5025513;28;20069;-80
2022/06/28 09:30:11;;;;;;;8.75;1.27;;;22.30;47.70;;;;;;5019469;28;20440;-80
2022/06/28 09:32:38;;;;;;;6.65;1.10;;;21.60;45.80;;;;;;5021245;28;20045;-80
2022/06/28 09:35:06;;;;;;;7.25;1.42;;;21.70;46.20;;;;;;5019754;28;20061;-80
2022/06/28 09:37:34;;;;;;;7.63;1.48;;;21.80;46.30;;;;;;5028566;28;20037;-81
2022/06/28 09:40:23;;;;;;;8.20;1.05;;;22.50;46.60;;;;;;5024204;28;20053;-79
2022/06/28 09:43:04;;;;;;;7.50;1.13;;;21.90;44.60;;;;;;5025028;28;20116;-79
2022/06/28 09:45:29;;;;;;;;;;;21.90;44.90;;;;;;5026367;28;20029;-81
2022/06/28 09:47:55;;;;;;;8.95;1.30;;;21.80;45.00;;;;;;5027141;28;19909;-78
2022/06/28 09:50:23;;;;;;;8.23;1.30;;;21.90;48.20;;;;;;5022785;28;20034;-79
2022/06/28 09:52:51;;;;;;;7.10;1.48;;;21.70;45.60;;;;;;5017721;28;20073;-79
2022/06/28 09:55:18;;;;;;;5.10;1.17;;;22.70;46.60;;;;;;5060096;28;20666;-80
2022/06/28 09:57:47;;;;;;;6.10;1.25;;;21.70;44.90;;;;;;5021271;28;20035;-81
2022/06/28 10:00:14;;;;;;;8.25;1.45;;;21.70;45.00;;;;;;5014700;28;20061;-80
2022/06/28 10:02:42;;;;;;;5.20;1.40;;;21.90;44.90;;;;;;5026765;28;20029;-80
2022/06/28 10:05:09;;;;;;;7.70;1.48;;;20.40;45.10;;;;;;5025969;28;20026;-80
2022/06/28 10:07:35;;;;;;;8.75;1.33;;;22.30;45.40;;;;;;5018340;28;20034;-81
2022/06/28 10:10:03;;;;;;;8.52;1.88;;;22.50;47.10;;;;;;5023246;28;20403;-80
2022/06/28 10:15:19;;;;;;;9.18;1.63;;;22.50;44.70;;;;;;5024101;28;20040;-80
2022/06/28 10:18:00;;;;;;;7.85;1.40;;;23.70;45.60;;;;;;5019616;28;20028;-79
2022/06/28 10:20:32;;;;;;;8.73;2.00;;;22.60;43.70;;;;;;5016251;28;20485;-79
2022/06/28 10:23:22;;;;;;;9.65;1.50;;;22.60;43.30;;;;;;5020557;28;20033;-79
2022/06/28 10:26:07;;;;;;;5.47;1.40;;;22.80;43.10;;;;;;5027147;28;20025;-78
2022/06/28 10:29:03;;;;;;;6.28;1.63;;;23.50;42.10;;;;;;5025643;28;20183;-80
2022/06/28 10:31:30;;;;;;;5.47;1.38;;;23.30;42.00;;;;;;5016317;28;20423;-78
2022/06/28 10:33:58;;;;;;;6.47;1.30;;;23.30;42.10;;;;;;5026252;28;20113;-78
2022/06/28 10:36:26;;;;;;;8.40;1.52;;;23.30;42.00;;;;;;5026040;28;20040;-77
2022/06/28 10:39:07;;;;;;;6.00;1.23;;;23.30;41.70;;;;;;5026915;28;20495;-78
2022/06/28 10:41:42;;;;;;;8.25;1.35;;;24.30;40.90;;;;;;5019801;28;20051;-78
2022/06/28 10:44:41;;;;;;;8.68;1.40;;;27.90;34.40;;;;;;5025011;28;20523;-80
2022/06/28 10:47:07;;;;;;;7.37;1.20;;;28.60;32.40;;;;;;5056202;28;20384;-76
2022/06/28 10:49:43;;;;;;;41.05;2.33;;;27.50;31.80;;;;;;5014517;28;20034;-77
2022/06/28 10:52:25;;;;;;;7.20;1.52;;;28.70;29.50;;;;;;5026408;28;20042;-77
2022/06/28 10:54:51;;;;;;;6.07;1.30;;;27.70;30.40;;;;;;5025422;28;20025;-78
2022/06/28 10:57:33;;;;;;;6.55;1.20;;;26.70;32.00;;;;;;5015088;28;20164;-76
2022/06/28 11:00:04;;;;;;;6.68;1.23;;;27.00;32.10;;;;;;5015932;28;20033;-76
2022/06/28 11:02:46;;;;;;;8.43;1.30;;;29.50;28.80;;;;;;5023732;28;20034;-79
2022/06/28 11:05:12;;;;;;;4.68;1.23;;;30.40;27.50;;;;;;5023958;28;20084;-78
2022/06/28 11:07:40;;;;;;;7.60;1.40;;;30.40;28.70;;;;;;5022563;28;20025;-78
2022/06/28 11:10:12;;;;;;;8.68;1.30;;;29.70;27.90;;;;;;5026333;28;20037;-77
2022/06/28 11:12:40;;;;;;;6.00;1.20;;;28.80;28.70;;;;;;5026218;28;20065;-77
2022/06/28 11:15:26;;;;;;;5.25;1.20;;;30.70;26.50;;;;;;5015621;28;20033;-79
2022/06/28 11:17:51;;;;;;;6.68;1.33;;;31.10;25.10;;;;;;5022033;28;20045;-80
2022/06/28 11:20:22;;;;;;;7.80;1.25;;;30.20;25.90;;;;;;5022321;28;20374;-76
2022/06/28 11:22:49;;;;;;;9.57;1.30;;;29.00;27.20;;;;;;5016284;28;20029;-76
2022/06/28 11:25:22;;;;;;;5.15;1.27;;;28.00;28.40;;;;;;5012229;28;20501;-76
2022/06/28 11:27:55;;;;;;;6.13;1.30;;;27.30;29.50;;;;;;5011788;28;20026;-76
2022/06/28 11:30:23;;;;;;;5.05;1.30;;;27.00;30.00;;;;;;5024165;28;20080;-76
2022/06/28 11:32:50;;;;;;;5.82;1.20;;;26.70;30.70;;;;;;5019679;28;20037;-76
2022/06/28 11:35:16;;;;;;;6.18;1.55;;;28.60;28.80;;;;;;5016239;28;20026;-76
2022/06/28 11:37:52;;;;;;;7.63;1.50;;;29.50;27.80;;;;;;5015729;28;20471;-76
2022/06/28 11:40:21;;;;;;;6.90;1.40;;;28.40;29.70;;;;;;5021531;28;20029;-76
2022/06/28 11:42:59;;;;;;;6.13;1.30;;;28.10;30.30;;;;;;5014079;28;20037;-76
2022/06/28 11:45:32;;;;;;;7.97;1.25;;;27.70;31.10;;;;;;5023862;28;20053;-76
2022/06/28 11:48:03;;;;;;;6.93;1.20;;;27.20;31.10;;;;;;5028270;28;20033;-76
2022/06/28 11:50:39;;;;;;;8.75;1.30;;;26.90;31.90;;;;;;5025327;28;20025;-76
2022/06/28 11:53:05;;;;;;;7.53;1.10;;;27.50;31.30;;;;;;5019585;28;20125;-76
2022/06/28 11:55:40;;;;;;;7.38;1.45;;;27.70;29.30;;;;;;5017796;28;20052;-75
2022/06/28 11:58:15;;;;;;;6.45;1.23;;;27.20;30.70;;;;;;5015991;28;20033;-76
2022/06/28 12:01:00;;;;;;;6.72;1.23;;;26.80;31.30;;;;;;5029057;28;20028;-76
2022/06/28 12:03:26;;;;;;;7.35;1.20;;;28.10;29.20;;;;;;5016297;28;20030;-77
2022/06/28 12:06:00;;;;;;;5.75;1.30;;;28.70;29.70;;;;;;5028042;28;20048;-77
2022/06/28 12:08:46;;;;;;;7.00;1.40;;;30.60;27.30;;;;;;5025023;28;20034;-77
2022/06/28 12:11:39;;;;;;;6.03;1.10;;;30.30;27.30;;;;;;5022487;28;20037;-76
2022/06/28 12:14:13;;;;;;;5.68;1.20;;;29.20;28.80;;;;;;5026344;28;20075;-75
2022/06/28 12:16:50;;;;;;;5.38;1.10;;;29.60;27.60;;;;;;5028455;28;20025;-76
2022/06/28 12:19:26;;;;;;;6.35;1.33;;;29.10;27.50;;;;;;5014291;28;20516;-77
2022/06/28 12:22:12;;;;;;;7.15;1.17;;;30.00;26.10;;;;;;5028426;28;20052;-77
2022/06/28 12:24:38;;;;;;;7.53;1.15;;;29.70;25.70;;;;;;5029851;28;20022;-77
2022/06/28 12:27:04;;;;;;;6.18;1.10;;;28.90;27.00;;;;;;5027484;28;20041;-76
2022/06/28 12:29:29;;;;;;;4.55;1.20;;;29.30;26.10;;;;;;5023476;28;20037;-76
2022/06/28 12:31:55;;;;;;;5.55;1.00;;;30.00;25.50;;;;;;5023912;28;20057;-77
2022/06/28 12:34:20;;;;;;;5.38;1.05;;;31.90;24.30;;;;;;5026445;28;20521;-77
2022/06/28 12:36:46;;;;;;;5.55;1.20;;;33.00;22.70;;;;;;5028837;28;20551;-78
2022/06/28 12:39:12;;;;;;;3.85;0.90;;;34.20;21.50;;;;;;5026884;28;20025;-76
2022/06/28 12:41:38;;;;;;;5.82;1.10;;;35.10;20.60;;;;;;5020946;28;20053;-76
2022/06/28 12:44:03;;;;;;;6.68;1.15;;;34.10;21.50;;;;;;5022297;28;20033;-76
2022/06/28 12:46:29;;;;;;;5.63;1.00;;;33.60;21.60;;;;;;5014481;28;20025;-77
2022/06/28 12:48:55;;;;;;;7.40;1.10;;;34.70;19.90;;;;;;5029365;28;20026;-76
2022/06/28 12:51:21;;;;;;;4.35;1.00;;;34.20;19.90;;;;;;5018455;28;20513;-76
2022/06/28 12:53:47;;;;;;;5.55;0.98;;;33.20;21.90;;;;;;5028018;28;20544;-76
2022/06/28 12:56:15;;;;;;;5.75;0.85;;;33.10;21.30;;;;;;5024848;28;20053;-77
2022/06/28 12:58:43;;;;;;;5.88;1.08;;;32.60;22.20;;;;;;5016749;28;20040;-77
2022/06/28 13:01:09;;;;;;;3.70;0.95;;;33.50;21.90;;;;;;5029340;28;20106;-77
2022/06/28 13:03:34;;;;;;;6.22;0.90;;;34.30;21.10;;;;;;5021251;28;20417;-76
2022/06/28 13:06:00;;;;;;;4.97;1.00;;;34.00;21.40;;;;;;5018856;28;20037;-77